sensor_id;sensor_type;location;lat;lon;timestamp;P1;durP1;ratioP1;P2;durP2;ratioP2
18166;SDS011;9208;42.688;23.404;2022-12-04T00:01:03;6.77;;;6.10;;
18166;SDS011;9208;42.688;23.404;2022-12-04T00:03:30;6.53;;;5.73;;
18166;SDS011;9208;42.688;23.404;2022-12-04T00:06:03;6.80;;;6.10;;
18166;SDS011;9208;42.688;23.404;2022-12-04T00:08:30;6.07;;;5.47;;
18166;SDS011;9208;42.688;23.404;2022-12-04T00:10:56;6.80;;;5.37;;
18166;SDS011;9208;42.688;23.404;2022-12-04T00:13:21;6.10;;;5.47;;
18166;SDS011;9208;42.688;23.404;2022-12-04T00:15:46;6.10;;;5.50;;
18166;SDS011;9208;42.688;23.404;2022-12-04T00:18:12;5.73;;;5.20;;
18166;SDS011;9208;42.688;23.404;2022-12-04T00:20:38;6.27;;;5.53;;
18166;SDS011;9208;42.688;23.404;2022-12-04T00:23:04;5.63;;;5.00;;
18166;SDS011;9208;42.688;23.404;2022-12-04T00:25:29;5.73;;;5.23;;
18166;SDS011;9208;42.688;23.404;2022-12-04T00:27:55;6.00;;;5.13;;
18166;SDS011;9208;42.688;23.404;2022-12-04T00:30:20;5.63;;;5.07;;
18166;SDS011;9208;42.688;23.404;2022-12-04T00:32:46;5.97;;;5.10;;
18166;SDS011;9208;42.688;23.404;2022-12-04T00:35:11;5.37;;;4.87;;
18166;SDS011;9208;42.688;23.404;2022-12-04T00:37:37;5.80;;;5.30;;
18166;SDS011;9208;42.688;23.404;2022-12-04T00:40:02;5.33;;;4.83;;
18166;SDS011;9208;42.688;23.404;2022-12-04T00:42:28;5.63;;;5.13;;
18166;SDS011;9208;42.688;23.404;2022-12-04T00:44:54;5.23;;;4.73;;
18166;SDS011;9208;42.688;23.404;2022-12-04T00:47:19;6.37;;;5.10;;
18166;SDS011;9208;42.688;23.404;2022-12-04T00:49:44;4.93;;;4.43;;
18166;SDS011;9208;42.688;23.404;2022-12-04T00:52:10;4.53;;;4.13;;
18166;SDS011;9208;42.688;23.404;2022-12-04T00:54:35;4.70;;;4.23;;
18166;SDS011;9208;42.688;23.404;2022-12-04T00:57:00;4.80;;;4.40;;
18166;SDS011;9208;42.688;23.404;2022-12-04T00:59:26;4.83;;;4.43;;
18166;SDS011;9208;42.688;23.404;2022-12-04T01:01:51;4.60;;;4.20;;
18166;SDS011;9208;42.688;23.404;2022-12-04T01:04:17;4.83;;;4.30;;
18166;SDS011;9208;42.688;23.404;2022-12-04T01:06:42;4.30;;;3.90;;
18166;SDS011;9208;42.688;23.404;2022-12-04T01:09:07;4.13;;;3.70;;
18166;SDS011;9208;42.688;23.404;2022-12-04T01:11:33;4.43;;;4.03;;
18166;SDS011;9208;42.688;23.404;2022-12-04T01:13:59;4.27;;;3.87;;
18166;SDS011;9208;42.688;23.404;2022-12-04T01:16:30;4.30;;;3.90;;
18166;SDS011;9208;42.688;23.404;2022-12-04T01:18:57;4.20;;;3.83;;
18166;SDS011;9208;42.688;23.404;2022-12-04T01:21:22;4.23;;;3.83;;
18166;SDS011;9208;42.688;23.404;2022-12-04T01:23:48;4.27;;;3.87;;
18166;SDS011;9208;42.688;23.404;2022-12-04T01:26:13;4.57;;;3.80;;
18166;SDS011;9208;42.688;23.404;2022-12-04T01:28:39;4.30;;;3.90;;
18166;SDS011;9208;42.688;23.404;2022-12-04T01:31:09;3.70;;;3.40;;
18166;SDS011;9208;42.688;23.404;2022-12-04T01:33:37;3.50;;;3.20;;
18166;SDS011;9208;42.688;23.404;2022-12-04T01:36:04;3.57;;;3.27;;
18166;SDS011;9208;42.688;23.404;2022-12-04T01:38:32;3.87;;;3.57;;
18166;SDS011;9208;42.688;23.404;2022-12-04T01:40:58;3.87;;;3.57;;
18166;SDS011;9208;42.688;23.404;2022-12-04T01:43:24;3.70;;;3.40;;
18166;SDS011;9208;42.688;23.404;2022-12-04T01:45:54;3.80;;;3.50;;
18166;SDS011;9208;42.688;23.404;2022-12-04T01:48:23;3.83;;;3.50;;
18166;SDS011;9208;42.688;23.404;2022-12-04T01:53:43;3.60;;;3.30;;
18166;SDS011;9208;42.688;23.404;2022-12-04T01:56:13;3.83;;;3.53;;
18166;SDS011;9208;42.688;23.404;2022-12-04T01:58:40;3.90;;;3.60;;
18166;SDS011;9208;42.688;23.404;2022-12-04T02:01:10;3.50;;;3.20;;
18166;SDS011;9208;42.688;23.404;2022-12-04T02:03:36;3.20;;;3.00;;
18166;SDS011;9208;42.688;23.404;2022-12-04T02:06:03;3.77;;;3.47;;
18166;SDS011;9208;42.688;23.404;2022-12-04T02:08:28;3.47;;;3.17;;
18166;SDS011;9208;42.688;23.404;2022-12-04T02:13:56;3.47;;;3.17;;
18166;SDS011;9208;42.688;23.404;2022-12-04T02:20:09;3.80;;;3.50;;
18166;SDS011;9208;42.688;23.404;2022-12-04T02:22:23;3.57;;;3.27;;
18166;SDS011;9208;42.688;23.404;2022-12-04T02:25:16;3.50;;;3.20;;
18166;SDS011;9208;42.688;23.404;2022-12-04T02:30:32;3.60;;;3.30;;
18166;SDS011;9208;42.688;23.404;2022-12-04T02:33:05;3.47;;;3.17;;
18166;SDS011;9208;42.688;23.404;2022-12-04T02:35:39;3.13;;;2.93;;
18166;SDS011;9208;42.688;23.404;2022-12-04T02:38:14;3.33;;;3.03;;
18166;SDS011;9208;42.688;23.404;2022-12-04T02:41:16;3.47;;;3.17;;
18166;SDS011;9208;42.688;23.404;2022-12-04T02:46:45;3.90;;;2.97;;
18166;SDS011;9208;42.688;23.404;2022-12-04T02:49:16;3.40;;;3.10;;
18166;SDS011;9208;42.688;23.404;2022-12-04T02:51:46;3.20;;;2.90;;
18166;SDS011;9208;42.688;23.404;2022-12-04T02:54:19;3.80;;;3.50;;
18166;SDS011;9208;42.688;23.404;2022-12-04T02:56:49;3.57;;;3.27;;
18166;SDS011;9208;42.688;23.404;2022-12-04T02:59:18;3.77;;;3.47;;
18166;SDS011;9208;42.688;23.404;2022-12-04T03:01:49;3.20;;;2.80;;
18166;SDS011;9208;42.688;23.404;2022-12-04T03:04:22;3.27;;;2.97;;
18166;SDS011;9208;42.688;23.404;2022-12-04T03:06:51;3.93;;;3.63;;
18166;SDS011;9208;42.688;23.404;2022-12-04T03:09:24;3.60;;;3.30;;
18166;SDS011;9208;42.688;23.404;2022-12-04T03:12:05;3.60;;;3.30;;
18166;SDS011;9208;42.688;23.404;2022-12-04T03:14:41;3.50;;;3.20;;
18166;SDS011;9208;42.688;23.404;2022-12-04T03:17:14;3.43;;;3.20;;
18166;SDS011;9208;42.688;23.404;2022-12-04T03:19:47;3.60;;;3.30;;
18166;SDS011;9208;42.688;23.404;2022-12-04T03:22:21;3.27;;;2.97;;
18166;SDS011;9208;42.688;23.404;2022-12-04T03:24:50;3.43;;;3.13;;
18166;SDS011;9208;42.688;23.404;2022-12-04T03:27:32;2.93;;;2.73;;
18166;SDS011;9208;42.688;23.404;2022-12-04T03:30:17;3.10;;;2.77;;
18166;SDS011;9208;42.688;23.404;2022-12-04T03:35:56;3.17;;;2.97;;
18166;SDS011;9208;42.688;23.404;2022-12-04T03:41:18;3.13;;;2.90;;
18166;SDS011;9208;42.688;23.404;2022-12-04T03:43:51;3.10;;;2.90;;
18166;SDS011;9208;42.688;23.404;2022-12-04T03:46:35;3.10;;;2.73;;
18166;SDS011;9208;42.688;23.404;2022-12-04T03:49:11;2.80;;;2.60;;
18166;SDS011;9208;42.688;23.404;2022-12-04T03:51:46;3.10;;;2.80;;
18166;SDS011;9208;42.688;23.404;2022-12-04T03:54:36;3.30;;;3.00;;
18166;SDS011;9208;42.688;23.404;2022-12-04T03:57:12;3.00;;;2.80;;
18166;SDS011;9208;42.688;23.404;2022-12-04T03:59:48;2.87;;;2.67;;
18166;SDS011;9208;42.688;23.404;2022-12-04T04:02:18;2.60;;;2.40;;
18166;SDS011;9208;42.688;23.404;2022-12-04T04:04:48;2.93;;;2.73;;
18166;SDS011;9208;42.688;23.404;2022-12-04T04:07:23;2.73;;;2.53;;
18166;SDS011;9208;42.688;23.404;2022-12-04T04:09:53;3.87;;;2.90;;
18166;SDS011;9208;42.688;23.404;2022-12-04T04:12:27;3.33;;;3.03;;
18166;SDS011;9208;42.688;23.404;2022-12-04T04:15:00;3.00;;;2.80;;
18166;SDS011;9208;42.688;23.404;2022-12-04T04:17:51;2.90;;;2.70;;
18166;SDS011;9208;42.688;23.404;2022-12-04T04:20:48;2.87;;;2.67;;
18166;SDS011;9208;42.688;23.404;2022-12-04T04:23:36;3.10;;;2.90;;
18166;SDS011;9208;42.688;23.404;2022-12-04T04:26:24;3.40;;;3.10;;
18166;SDS011;9208;42.688;23.404;2022-12-04T04:28:51;3.23;;;2.93;;
18166;SDS011;9208;42.688;23.404;2022-12-04T04:36:53;2.90;;;2.70;;
18166;SDS011;9208;42.688;23.404;2022-12-04T04:39:33;3.00;;;2.77;;
18166;SDS011;9208;42.688;23.404;2022-12-04T04:44:43;3.27;;;2.97;;
18166;SDS011;9208;42.688;23.404;2022-12-04T04:47:19;3.53;;;3.20;;
18166;SDS011;9208;42.688;23.404;2022-12-04T04:49:51;3.43;;;3.13;;
18166;SDS011;9208;42.688;23.404;2022-12-04T04:52:20;3.10;;;2.80;;
18166;SDS011;9208;42.688;23.404;2022-12-04T04:54:47;3.57;;;3.27;;
18166;SDS011;9208;42.688;23.404;2022-12-04T04:57:16;4.20;;;2.97;;
18166;SDS011;9208;42.688;23.404;2022-12-04T04:59:50;3.90;;;3.50;;
18166;SDS011;9208;42.688;23.404;2022-12-04T05:02:16;3.70;;;3.37;;
18166;SDS011;9208;42.688;23.404;2022-12-04T05:04:41;3.67;;;2.90;;
18166;SDS011;9208;42.688;23.404;2022-12-04T05:07:07;3.23;;;2.93;;
18166;SDS011;9208;42.688;23.404;2022-12-04T05:09:32;3.63;;;3.33;;
18166;SDS011;9208;42.688;23.404;2022-12-04T05:11:58;4.07;;;3.60;;
18166;SDS011;9208;42.688;23.404;2022-12-04T05:14:23;4.13;;;3.73;;
18166;SDS011;9208;42.688;23.404;2022-12-04T05:16:48;4.17;;;3.77;;
18166;SDS011;9208;42.688;23.404;2022-12-04T05:19:14;4.97;;;4.33;;
18166;SDS011;9208;42.688;23.404;2022-12-04T05:21:58;4.37;;;3.97;;
18166;SDS011;9208;42.688;23.404;2022-12-04T05:24:24;4.37;;;3.97;;
18166;SDS011;9208;42.688;23.404;2022-12-04T05:26:49;4.30;;;3.83;;
18166;SDS011;9208;42.688;23.404;2022-12-04T05:29:15;4.10;;;3.70;;
18166;SDS011;9208;42.688;23.404;2022-12-04T05:31:40;3.60;;;3.30;;
18166;SDS011;9208;42.688;23.404;2022-12-04T05:34:05;3.80;;;3.50;;
18166;SDS011;9208;42.688;23.404;2022-12-04T05:36:31;4.63;;;4.13;;
18166;SDS011;9208;42.688;23.404;2022-12-04T05:38:56;3.90;;;3.50;;
18166;SDS011;9208;42.688;23.404;2022-12-04T05:41:22;3.50;;;3.20;;
18166;SDS011;9208;42.688;23.404;2022-12-04T05:43:50;3.83;;;3.50;;
18166;SDS011;9208;42.688;23.404;2022-12-04T05:46:16;3.77;;;3.30;;
18166;SDS011;9208;42.688;23.404;2022-12-04T05:48:42;3.63;;;3.33;;
18166;SDS011;9208;42.688;23.404;2022-12-04T05:51:08;3.33;;;3.03;;
18166;SDS011;9208;42.688;23.404;2022-12-04T05:53:35;4.03;;;3.33;;
18166;SDS011;9208;42.688;23.404;2022-12-04T05:56:01;3.47;;;3.17;;
18166;SDS011;9208;42.688;23.404;2022-12-04T05:58:28;3.63;;;3.33;;
18166;SDS011;9208;42.688;23.404;2022-12-04T06:00:53;3.50;;;3.20;;
18166;SDS011;9208;42.688;23.404;2022-12-04T06:03:19;3.57;;;3.27;;
18166;SDS011;9208;42.688;23.404;2022-12-04T06:05:45;3.80;;;3.30;;
18166;SDS011;9208;42.688;23.404;2022-12-04T06:08:10;3.57;;;3.27;;
18166;SDS011;9208;42.688;23.404;2022-12-04T06:10:36;3.10;;;2.90;;
18166;SDS011;9208;42.688;23.404;2022-12-04T06:13:01;3.30;;;3.00;;
18166;SDS011;9208;42.688;23.404;2022-12-04T06:15:27;2.90;;;2.70;;
18166;SDS011;9208;42.688;23.404;2022-12-04T06:17:52;4.03;;;3.30;;
18166;SDS011;9208;42.688;23.404;2022-12-04T06:20:17;3.30;;;3.00;;
18166;SDS011;9208;42.688;23.404;2022-12-04T06:22:43;3.33;;;3.03;;
18166;SDS011;9208;42.688;23.404;2022-12-04T06:25:08;4.33;;;3.50;;
18166;SDS011;9208;42.688;23.404;2022-12-04T06:27:34;4.07;;;3.10;;
18166;SDS011;9208;42.688;23.404;2022-12-04T06:30:00;4.23;;;3.80;;
18166;SDS011;9208;42.688;23.404;2022-12-04T06:32:26;4.77;;;3.87;;
18166;SDS011;9208;42.688;23.404;2022-12-04T06:34:53;4.23;;;3.83;;
18166;SDS011;9208;42.688;23.404;2022-12-04T06:37:22;4.10;;;3.70;;
18166;SDS011;9208;42.688;23.404;2022-12-04T06:39:49;7.17;;;3.90;;
18166;SDS011;9208;42.688;23.404;2022-12-04T06:42:15;4.10;;;3.70;;
18166;SDS011;9208;42.688;23.404;2022-12-04T06:44:40;4.43;;;3.80;;
18166;SDS011;9208;42.688;23.404;2022-12-04T06:47:06;5.43;;;4.30;;
18166;SDS011;9208;42.688;23.404;2022-12-04T06:49:32;4.83;;;3.93;;
18166;SDS011;9208;42.688;23.404;2022-12-04T06:51:57;4.77;;;4.17;;
18166;SDS011;9208;42.688;23.404;2022-12-04T06:54:23;4.93;;;4.00;;
18166;SDS011;9208;42.688;23.404;2022-12-04T06:56:50;4.40;;;4.00;;
18166;SDS011;9208;42.688;23.404;2022-12-04T06:59:15;4.23;;;3.83;;
18166;SDS011;9208;42.688;23.404;2022-12-04T07:01:41;4.60;;;4.17;;
18166;SDS011;9208;42.688;23.404;2022-12-04T07:04:06;4.97;;;3.93;;
18166;SDS011;9208;42.688;23.404;2022-12-04T07:06:33;3.87;;;3.50;;
18166;SDS011;9208;42.688;23.404;2022-12-04T07:11:28;4.33;;;3.63;;
18166;SDS011;9208;42.688;23.404;2022-12-04T07:13:54;6.50;;;3.90;;
18166;SDS011;9208;42.688;23.404;2022-12-04T07:16:20;4.20;;;3.80;;
18166;SDS011;9208;42.688;23.404;2022-12-04T07:18:47;4.30;;;3.70;;
18166;SDS011;9208;42.688;23.404;2022-12-04T07:21:21;4.63;;;3.77;;
18166;SDS011;9208;42.688;23.404;2022-12-04T07:23:49;4.80;;;4.00;;
18166;SDS011;9208;42.688;23.404;2022-12-04T07:26:16;3.93;;;3.53;;
18166;SDS011;9208;42.688;23.404;2022-12-04T07:28:42;5.17;;;4.00;;
18166;SDS011;9208;42.688;23.404;2022-12-04T07:31:10;4.00;;;3.60;;
18166;SDS011;9208;42.688;23.404;2022-12-04T07:33:40;4.80;;;3.80;;
18166;SDS011;9208;42.688;23.404;2022-12-04T07:36:07;5.33;;;3.97;;
18166;SDS011;9208;42.688;23.404;2022-12-04T07:38:35;3.40;;;3.10;;
18166;SDS011;9208;42.688;23.404;2022-12-04T07:41:05;5.20;;;3.93;;
18166;SDS011;9208;42.688;23.404;2022-12-04T07:43:31;4.70;;;4.20;;
18166;SDS011;9208;42.688;23.404;2022-12-04T07:45:58;4.07;;;3.60;;
18166;SDS011;9208;42.688;23.404;2022-12-04T07:48:27;4.70;;;3.73;;
18166;SDS011;9208;42.688;23.404;2022-12-04T07:51:00;10.83;;;4.37;;
18166;SDS011;9208;42.688;23.404;2022-12-04T07:53:30;5.93;;;3.93;;
18166;SDS011;9208;42.688;23.404;2022-12-04T07:55:55;6.43;;;3.50;;
18166;SDS011;9208;42.688;23.404;2022-12-04T07:58:21;4.30;;;3.80;;
18166;SDS011;9208;42.688;23.404;2022-12-04T08:00:46;4.50;;;3.60;;
18166;SDS011;9208;42.688;23.404;2022-12-04T08:03:12;4.37;;;3.73;;
18166;SDS011;9208;42.688;23.404;2022-12-04T08:05:37;6.00;;;3.73;;
18166;SDS011;9208;42.688;23.404;2022-12-04T08:08:03;6.50;;;4.10;;
18166;SDS011;9208;42.688;23.404;2022-12-04T08:10:28;4.27;;;3.40;;
18166;SDS011;9208;42.688;23.404;2022-12-04T08:12:54;4.30;;;3.70;;
18166;SDS011;9208;42.688;23.404;2022-12-04T08:15:19;3.90;;;3.47;;
18166;SDS011;9208;42.688;23.404;2022-12-04T08:17:44;3.53;;;3.23;;
18166;SDS011;9208;42.688;23.404;2022-12-04T08:20:10;4.57;;;4.00;;
18166;SDS011;9208;42.688;23.404;2022-12-04T08:22:36;5.23;;;4.53;;
18166;SDS011;9208;42.688;23.404;2022-12-04T08:25:01;8.37;;;4.37;;
18166;SDS011;9208;42.688;23.404;2022-12-04T08:27:27;5.73;;;4.10;;
18166;SDS011;9208;42.688;23.404;2022-12-04T08:29:52;7.20;;;4.47;;
18166;SDS011;9208;42.688;23.404;2022-12-04T08:32:18;5.07;;;4.10;;
18166;SDS011;9208;42.688;23.404;2022-12-04T08:34:43;4.17;;;3.77;;
18166;SDS011;9208;42.688;23.404;2022-12-04T08:37:09;4.40;;;3.63;;
18166;SDS011;9208;42.688;23.404;2022-12-04T08:39:34;4.73;;;4.07;;
18166;SDS011;9208;42.688;23.404;2022-12-04T08:42:00;4.10;;;3.70;;
18166;SDS011;9208;42.688;23.404;2022-12-04T08:44:25;4.20;;;3.70;;
18166;SDS011;9208;42.688;23.404;2022-12-04T08:46:51;4.83;;;3.63;;
18166;SDS011;9208;42.688;23.404;2022-12-04T08:49:16;4.07;;;3.60;;
18166;SDS011;9208;42.688;23.404;2022-12-04T08:51:42;4.73;;;4.00;;
18166;SDS011;9208;42.688;23.404;2022-12-04T08:54:07;3.90;;;3.50;;
18166;SDS011;9208;42.688;23.404;2022-12-04T08:56:36;4.30;;;3.77;;
18166;SDS011;9208;42.688;23.404;2022-12-04T08:59:02;3.97;;;3.27;;
18166;SDS011;9208;42.688;23.404;2022-12-04T09:01:28;4.60;;;4.03;;
18166;SDS011;9208;42.688;23.404;2022-12-04T09:03:54;3.83;;;3.40;;
18166;SDS011;9208;42.688;23.404;2022-12-04T09:06:20;4.50;;;3.53;;
18166;SDS011;9208;42.688;23.404;2022-12-04T09:08:46;5.00;;;3.97;;
18166;SDS011;9208;42.688;23.404;2022-12-04T09:11:19;3.90;;;3.40;;
18166;SDS011;9208;42.688;23.404;2022-12-04T09:13:46;3.50;;;3.20;;
18166;SDS011;9208;42.688;23.404;2022-12-04T09:16:16;5.37;;;3.23;;
18166;SDS011;9208;42.688;23.404;2022-12-04T09:18:44;4.10;;;3.30;;
18166;SDS011;9208;42.688;23.404;2022-12-04T09:21:10;4.37;;;3.50;;
18166;SDS011;9208;42.688;23.404;2022-12-04T09:23:39;3.73;;;3.00;;
18166;SDS011;9208;42.688;23.404;2022-12-04T09:26:14;3.57;;;3.13;;
18166;SDS011;9208;42.688;23.404;2022-12-04T09:28:51;4.57;;;3.53;;
18166;SDS011;9208;42.688;23.404;2022-12-04T09:31:18;3.87;;;3.20;;
18166;SDS011;9208;42.688;23.404;2022-12-04T09:33:44;3.17;;;2.87;;
18166;SDS011;9208;42.688;23.404;2022-12-04T09:36:10;3.87;;;3.57;;
18166;SDS011;9208;42.688;23.404;2022-12-04T09:38:46;4.17;;;3.63;;
18166;SDS011;9208;42.688;23.404;2022-12-04T09:46:38;4.33;;;3.93;;
18166;SDS011;9208;42.688;23.404;2022-12-04T09:49:16;5.77;;;4.03;;
18166;SDS011;9208;42.688;23.404;2022-12-04T09:51:48;5.20;;;4.17;;
18166;SDS011;9208;42.688;23.404;2022-12-04T09:54:18;5.43;;;4.87;;
18166;SDS011;9208;42.688;23.404;2022-12-04T09:56:54;5.53;;;4.53;;
18166;SDS011;9208;42.688;23.404;2022-12-04T09:59:25;5.67;;;4.17;;
18166;SDS011;9208;42.688;23.404;2022-12-04T10:04:53;5.20;;;4.07;;
18166;SDS011;9208;42.688;23.404;2022-12-04T10:10:22;6.97;;;4.80;;
18166;SDS011;9208;42.688;23.404;2022-12-04T10:12:55;6.80;;;4.43;;
18166;SDS011;9208;42.688;23.404;2022-12-04T10:16:04;5.63;;;5.03;;
18166;SDS011;9208;42.688;23.404;2022-12-04T10:21:14;5.63;;;4.97;;
18166;SDS011;9208;42.688;23.404;2022-12-04T10:26:27;5.60;;;4.97;;
18166;SDS011;9208;42.688;23.404;2022-12-04T10:28:58;5.47;;;4.63;;
18166;SDS011;9208;42.688;23.404;2022-12-04T10:34:36;5.50;;;4.83;;
18166;SDS011;9208;42.688;23.404;2022-12-04T11:05:32;4.67;;;4.13;;
18166;SDS011;9208;42.688;23.404;2022-12-04T11:09:14;5.33;;;3.87;;
18166;SDS011;9208;42.688;23.404;2022-12-04T11:22:17;4.63;;;3.73;;
18166;SDS011;9208;42.688;23.404;2022-12-04T11:29:11;3.80;;;3.37;;
18166;SDS011;9208;42.688;23.404;2022-12-04T11:31:46;4.23;;;3.83;;
18166;SDS011;9208;42.688;23.404;2022-12-04T11:34:16;4.00;;;3.70;;
18166;SDS011;9208;42.688;23.404;2022-12-04T11:36:46;3.70;;;3.40;;
18166;SDS011;9208;42.688;23.404;2022-12-04T11:39:19;3.63;;;3.33;;
18166;SDS011;9208;42.688;23.404;2022-12-04T11:41:47;4.67;;;3.70;;
18166;SDS011;9208;42.688;23.404;2022-12-04T11:44:28;4.23;;;3.80;;
18166;SDS011;9208;42.688;23.404;2022-12-04T11:46:59;6.10;;;3.70;;
18166;SDS011;9208;42.688;23.404;2022-12-04T11:49:28;4.60;;;4.13;;
18166;SDS011;9208;42.688;23.404;2022-12-04T11:52:18;5.00;;;4.30;;
18166;SDS011;9208;42.688;23.404;2022-12-04T11:55:19;4.03;;;3.73;;
18166;SDS011;9208;42.688;23.404;2022-12-04T12:00:49;4.37;;;3.97;;
18166;SDS011;9208;42.688;23.404;2022-12-04T12:03:46;4.70;;;4.30;;
18166;SDS011;9208;42.688;23.404;2022-12-04T12:11:40;5.33;;;4.83;;
18166;SDS011;9208;42.688;23.404;2022-12-04T12:14:10;7.43;;;5.43;;
18166;SDS011;9208;42.688;23.404;2022-12-04T12:30:21;9.00;;;6.07;;
18166;SDS011;9208;42.688;23.404;2022-12-04T12:38:50;7.40;;;6.00;;
18166;SDS011;9208;42.688;23.404;2022-12-04T12:42:17;6.40;;;5.80;;
18166;SDS011;9208;42.688;23.404;2022-12-04T12:46:55;6.53;;;5.93;;
18166;SDS011;9208;42.688;23.404;2022-12-04T12:49:42;6.63;;;5.93;;
18166;SDS011;9208;42.688;23.404;2022-12-04T12:52:16;7.17;;;6.27;;
18166;SDS011;9208;42.688;23.404;2022-12-04T12:55:01;6.00;;;5.50;;
18166;SDS011;9208;42.688;23.404;2022-12-04T12:57:40;8.33;;;6.43;;
18166;SDS011;9208;42.688;23.404;2022-12-04T13:00:13;8.83;;;6.13;;
18166;SDS011;9208;42.688;23.404;2022-12-04T13:03:11;6.03;;;5.43;;
18166;SDS011;9208;42.688;23.404;2022-12-04T13:06:00;11.20;;;6.90;;
18166;SDS011;9208;42.688;23.404;2022-12-04T13:08:34;10.27;;;6.40;;
18166;SDS011;9208;42.688;23.404;2022-12-04T13:11:12;6.90;;;6.20;;
18166;SDS011;9208;42.688;23.404;2022-12-04T13:13:46;7.63;;;6.07;;
18166;SDS011;9208;42.688;23.404;2022-12-04T13:16:20;6.70;;;6.10;;
18166;SDS011;9208;42.688;23.404;2022-12-04T13:18:54;11.97;;;6.23;;
18166;SDS011;9208;42.688;23.404;2022-12-04T13:21:38;7.93;;;6.50;;
18166;SDS011;9208;42.688;23.404;2022-12-04T13:24:31;9.63;;;6.13;;
18166;SDS011;9208;42.688;23.404;2022-12-04T13:27:36;8.60;;;6.20;;
18166;SDS011;9208;42.688;23.404;2022-12-04T13:41:20;6.13;;;5.33;;
18166;SDS011;9208;42.688;23.404;2022-12-04T13:43:52;6.57;;;5.60;;
18166;SDS011;9208;42.688;23.404;2022-12-04T13:46:36;7.90;;;5.60;;
18166;SDS011;9208;42.688;23.404;2022-12-04T13:51:43;5.97;;;5.07;;
18166;SDS011;9208;42.688;23.404;2022-12-04T13:56:38;5.93;;;5.33;;
18166;SDS011;9208;42.688;23.404;2022-12-04T13:59:22;7.00;;;6.30;;
18166;SDS011;9208;42.688;23.404;2022-12-04T14:09:57;11.30;;;6.97;;
18166;SDS011;9208;42.688;23.404;2022-12-04T14:12:30;8.67;;;6.37;;
18166;SDS011;9208;42.688;23.404;2022-12-04T14:15:04;9.10;;;7.43;;
18166;SDS011;9208;42.688;23.404;2022-12-04T14:17:34;7.27;;;6.53;;
18166;SDS011;9208;42.688;23.404;2022-12-04T14:22:49;6.97;;;5.80;;
18166;SDS011;9208;42.688;23.404;2022-12-04T14:30:18;8.40;;;5.47;;
18166;SDS011;9208;42.688;23.404;2022-12-04T14:32:47;6.17;;;5.37;;
18166;SDS011;9208;42.688;23.404;2022-12-04T14:35:15;5.67;;;5.03;;
18166;SDS011;9208;42.688;23.404;2022-12-04T14:37:54;7.30;;;5.60;;
18166;SDS011;9208;42.688;23.404;2022-12-04T14:40:23;7.50;;;5.70;;
18166;SDS011;9208;42.688;23.404;2022-12-04T14:42:51;6.97;;;5.57;;
18166;SDS011;9208;42.688;23.404;2022-12-04T14:47:49;6.07;;;5.43;;
18166;SDS011;9208;42.688;23.404;2022-12-04T14:53:31;8.63;;;5.93;;
18166;SDS011;9208;42.688;23.404;2022-12-04T14:59:13;6.70;;;6.00;;
18166;SDS011;9208;42.688;23.404;2022-12-04T15:01:45;13.37;;;6.40;;
18166;SDS011;9208;42.688;23.404;2022-12-04T15:04:15;6.30;;;5.60;;
18166;SDS011;9208;42.688;23.404;2022-12-04T15:06:57;6.67;;;5.17;;
18166;SDS011;9208;42.688;23.404;2022-12-04T15:09:24;6.53;;;5.60;;
18166;SDS011;9208;42.688;23.404;2022-12-04T15:15:10;8.47;;;6.50;;
18166;SDS011;9208;42.688;23.404;2022-12-04T15:17:37;7.00;;;6.27;;
18166;SDS011;9208;42.688;23.404;2022-12-04T15:20:10;8.47;;;6.60;;
18166;SDS011;9208;42.688;23.404;2022-12-04T15:22:40;7.63;;;6.20;;
18166;SDS011;9208;42.688;23.404;2022-12-04T15:25:12;8.57;;;6.17;;
18166;SDS011;9208;42.688;23.404;2022-12-04T15:27:39;7.43;;;6.63;;
18166;SDS011;9208;42.688;23.404;2022-12-04T15:30:05;6.87;;;5.90;;
18166;SDS011;9208;42.688;23.404;2022-12-04T15:32:31;8.13;;;6.17;;
18166;SDS011;9208;42.688;23.404;2022-12-04T15:34:59;7.67;;;5.97;;
18166;SDS011;9208;42.688;23.404;2022-12-04T15:37:30;8.20;;;6.50;;
18166;SDS011;9208;42.688;23.404;2022-12-04T15:39:57;6.97;;;6.27;;
18166;SDS011;9208;42.688;23.404;2022-12-04T15:44:58;7.27;;;5.60;;
18166;SDS011;9208;42.688;23.404;2022-12-04T15:53:06;7.00;;;5.67;;
18166;SDS011;9208;42.688;23.404;2022-12-04T15:55:47;7.00;;;6.20;;
18166;SDS011;9208;42.688;23.404;2022-12-04T15:58:24;6.60;;;5.67;;
18166;SDS011;9208;42.688;23.404;2022-12-04T16:01:02;7.00;;;5.73;;
18166;SDS011;9208;42.688;23.404;2022-12-04T16:03:36;9.20;;;6.57;;
18166;SDS011;9208;42.688;23.404;2022-12-04T16:06:14;7.70;;;6.10;;
18166;SDS011;9208;42.688;23.404;2022-12-04T16:08:41;7.47;;;6.33;;
18166;SDS011;9208;42.688;23.404;2022-12-04T16:13:49;9.53;;;6.80;;
18166;SDS011;9208;42.688;23.404;2022-12-04T16:16:36;8.30;;;6.27;;
18166;SDS011;9208;42.688;23.404;2022-12-04T16:19:13;8.07;;;6.40;;
18166;SDS011;9208;42.688;23.404;2022-12-04T16:21:49;7.93;;;6.60;;
18166;SDS011;9208;42.688;23.404;2022-12-04T16:24:15;10.30;;;6.67;;
18166;SDS011;9208;42.688;23.404;2022-12-04T16:26:41;9.33;;;6.83;;
18166;SDS011;9208;42.688;23.404;2022-12-04T16:29:06;8.90;;;6.33;;
18166;SDS011;9208;42.688;23.404;2022-12-04T16:31:32;7.83;;;6.90;;
18166;SDS011;9208;42.688;23.404;2022-12-04T16:33:57;10.00;;;6.50;;
18166;SDS011;9208;42.688;23.404;2022-12-04T16:36:23;8.40;;;6.43;;
18166;SDS011;9208;42.688;23.404;2022-12-04T16:38:48;9.47;;;6.47;;
18166;SDS011;9208;42.688;23.404;2022-12-04T16:41:17;8.33;;;6.37;;
18166;SDS011;9208;42.688;23.404;2022-12-04T16:43:44;9.20;;;6.90;;
18166;SDS011;9208;42.688;23.404;2022-12-04T16:46:13;7.73;;;6.03;;
18166;SDS011;9208;42.688;23.404;2022-12-04T16:48:40;8.10;;;6.07;;
18166;SDS011;9208;42.688;23.404;2022-12-04T16:51:16;9.87;;;6.63;;
18166;SDS011;9208;42.688;23.404;2022-12-04T16:53:44;7.30;;;6.00;;
18166;SDS011;9208;42.688;23.404;2022-12-04T16:56:10;6.83;;;5.73;;
18166;SDS011;9208;42.688;23.404;2022-12-04T16:58:36;7.67;;;6.00;;
18166;SDS011;9208;42.688;23.404;2022-12-04T17:01:02;8.53;;;5.97;;
18166;SDS011;9208;42.688;23.404;2022-12-04T17:03:31;8.50;;;5.93;;
18166;SDS011;9208;42.688;23.404;2022-12-04T17:05:58;6.70;;;5.43;;
18166;SDS011;9208;42.688;23.404;2022-12-04T17:08:24;9.80;;;7.40;;
18166;SDS011;9208;42.688;23.404;2022-12-04T17:10:50;8.10;;;6.13;;
18166;SDS011;9208;42.688;23.404;2022-12-04T17:13:20;8.33;;;5.60;;
18166;SDS011;9208;42.688;23.404;2022-12-04T17:15:46;8.03;;;6.13;;
18166;SDS011;9208;42.688;23.404;2022-12-04T17:18:12;7.93;;;5.87;;
18166;SDS011;9208;42.688;23.404;2022-12-04T17:20:41;8.30;;;6.80;;
18166;SDS011;9208;42.688;23.404;2022-12-04T17:23:08;9.63;;;5.87;;
18166;SDS011;9208;42.688;23.404;2022-12-04T17:25:34;7.97;;;5.90;;
18166;SDS011;9208;42.688;23.404;2022-12-04T17:28:00;8.70;;;6.27;;
18166;SDS011;9208;42.688;23.404;2022-12-04T17:30:26;7.60;;;6.80;;
18166;SDS011;9208;42.688;23.404;2022-12-04T17:32:53;9.53;;;7.17;;
18166;SDS011;9208;42.688;23.404;2022-12-04T17:35:18;8.23;;;6.13;;
18166;SDS011;9208;42.688;23.404;2022-12-04T17:37:44;8.97;;;6.30;;
18166;SDS011;9208;42.688;23.404;2022-12-04T17:40:09;8.03;;;6.20;;
18166;SDS011;9208;42.688;23.404;2022-12-04T17:42:37;8.40;;;6.10;;
18166;SDS011;9208;42.688;23.404;2022-12-04T17:45:03;6.03;;;5.10;;
18166;SDS011;9208;42.688;23.404;2022-12-04T17:47:29;6.83;;;5.70;;
18166;SDS011;9208;42.688;23.404;2022-12-04T17:49:54;8.73;;;5.73;;
18166;SDS011;9208;42.688;23.404;2022-12-04T17:52:19;7.93;;;5.90;;
18166;SDS011;9208;42.688;23.404;2022-12-04T17:54:49;6.60;;;5.50;;
18166;SDS011;9208;42.688;23.404;2022-12-04T17:57:15;7.03;;;5.03;;
18166;SDS011;9208;42.688;23.404;2022-12-04T17:59:41;6.30;;;5.50;;
18166;SDS011;9208;42.688;23.404;2022-12-04T18:02:08;6.20;;;5.07;;
18166;SDS011;9208;42.688;23.404;2022-12-04T18:04:34;6.60;;;5.23;;
18166;SDS011;9208;42.688;23.404;2022-12-04T18:06:59;5.73;;;4.60;;